Terminal Aerodrome Forecast
Issued by NWS Cleveland, OH

Home | Current Version | Previous Version | Graphics & Text | Print | Product List | Glossary On
Versions: 1 2 3 4 5 6 7 8 9 10 11 12 13 14 15 16 17 18 19 20 21 22
000
FTUS41 KCLE 150539
TAFERI
TAF
KERI 150539Z 1506/1606 20010KT P6SM OVC007
      TEMPO 1506/1510 5SM -DZ BR OVC010
     FM151200 21013KT P6SM OVC010
     FM151400 23017G25KT P6SM OVC015
     FM152100 22010KT 1 1/2SM -RA BR OVC003=

USA.gov is the U.S. government's official web portal to all federal, state and local government web resources and services.